createdAt,value
2023-02-19T00:01:53.788Z,92.50
2023-02-19T00:04:22.096Z,92.10
2023-02-19T00:06:48.840Z,91.86
2023-02-19T00:09:19.749Z,92.31
2023-02-19T00:11:46.574Z,92.26
2023-02-19T00:14:23.610Z,92.39
2023-02-19T00:16:50.383Z,92.34
2023-02-19T00:19:19.682Z,92.46
2023-02-19T00:21:46.521Z,92.56
2023-02-19T00:24:16.236Z,92.66
2023-02-19T00:26:50.571Z,91.93
2023-02-19T00:29:22.014Z,92.00
2023-02-19T00:31:51.336Z,93.19
2023-02-19T00:34:20.935Z,93.15
2023-02-19T00:36:51.812Z,93.96
2023-02-19T00:39:24.604Z,94.17
2023-02-19T00:41:51.201Z,94.20
2023-02-19T00:44:17.796Z,94.80
2023-02-19T00:46:51.034Z,93.01
2023-02-19T00:49:22.946Z,95.34
2023-02-19T00:51:55.824Z,99.06
2023-02-19T00:54:24.969Z,100.00
2023-02-19T00:57:15.506Z,100.00
2023-02-19T00:59:45.540Z,100.00
2023-02-19T01:02:12.129Z,100.00
2023-02-19T01:04:38.832Z,100.00
2023-02-19T01:07:05.400Z,100.00
2023-02-19T01:09:37.565Z,100.00
2023-02-19T01:12:07.530Z,100.00
2023-02-19T01:14:36.651Z,100.00
2023-02-19T01:17:06.718Z,100.00
2023-02-19T01:19:38.064Z,100.00
2023-02-19T01:22:07.398Z,100.00
2023-02-19T01:24:34.029Z,100.00
2023-02-19T01:27:00.875Z,100.00
2023-02-19T01:29:27.507Z,100.00
2023-02-19T01:34:43.215Z,100.00
2023-02-19T01:37:12.413Z,100.00
2023-02-19T01:39:39.482Z,100.00
2023-02-19T01:42:15.011Z,100.00
2023-02-19T01:44:47.731Z,100.00
2023-02-19T01:47:19.845Z,100.00
2023-02-19T01:49:58.634Z,100.00
2023-02-19T01:52:40.915Z,100.00
2023-02-19T01:55:14.513Z,100.00
2023-02-19T01:57:54.278Z,100.00
2023-02-19T02:00:29.127Z,100.00
2023-02-19T02:03:01.280Z,100.00
2023-02-19T02:05:54.830Z,100.00
2023-02-19T02:08:30.658Z,100.00
2023-02-19T02:10:58.005Z,100.00
2023-02-19T02:13:24.763Z,100.00
2023-02-19T02:16:13.913Z,100.00
2023-02-19T02:18:49.366Z,100.00
2023-02-19T02:21:53.486Z,100.00
2023-02-19T02:24:47.883Z,100.00
2023-02-19T02:27:41.229Z,100.00
2023-02-19T02:30:33.053Z,100.00
2023-02-19T02:33:12.403Z,100.00
2023-02-19T02:36:17.242Z,100.00
2023-02-19T02:38:49.215Z,100.00
2023-02-19T02:41:16.350Z,100.00
2023-02-19T02:43:42.978Z,100.00
2023-02-19T02:46:18.573Z,100.00
2023-02-19T02:49:02.905Z,100.00
2023-02-19T02:51:36.407Z,100.00
2023-02-19T02:54:28.786Z,100.00
2023-02-19T02:56:59.097Z,100.00
2023-02-19T02:59:39.753Z,100.00
2023-02-19T03:02:17.663Z,100.00
2023-02-19T03:05:08.438Z,100.00
2023-02-19T03:10:40.118Z,100.00
2023-02-19T03:13:23.222Z,100.00
2023-02-19T03:16:24.586Z,100.00
2023-02-19T03:18:54.539Z,100.00
2023-02-19T03:21:23.942Z,100.00
2023-02-19T03:23:51.265Z,100.00
2023-02-19T03:26:19.312Z,100.00
2023-02-19T03:28:50.248Z,100.00
2023-02-19T03:31:26.173Z,100.00
2023-02-19T03:33:59.919Z,100.00
2023-02-19T03:36:41.396Z,100.00
2023-02-19T03:39:12.966Z,100.00
2023-02-19T03:41:50.775Z,100.00
2023-02-19T03:44:52.941Z,100.00
2023-02-19T03:47:30.417Z,100.00
2023-02-19T03:50:15.725Z,100.00
2023-02-19T03:53:17.114Z,100.00
2023-02-19T03:56:31.858Z,100.00
2023-02-19T03:59:24.020Z,100.00
2023-02-19T04:02:09.106Z,100.00
2023-02-19T04:04:52.741Z,100.00
2023-02-19T04:07:19.650Z,100.00
2023-02-19T04:09:49.984Z,100.00
2023-02-19T04:12:18.233Z,100.00
2023-02-19T04:15:02.228Z,100.00
2023-02-19T04:17:55.724Z,100.00
2023-02-19T04:20:32.099Z,100.00
2023-02-19T04:23:17.476Z,100.00
2023-02-19T04:25:50.680Z,100.00
2023-02-19T04:28:24.101Z,100.00
2023-02-19T04:30:50.558Z,100.00
2023-02-19T04:33:17.239Z,100.00
2023-02-19T04:35:52.695Z,100.00
2023-02-19T04:38:21.640Z,100.00
2023-02-19T04:40:48.238Z,100.00
2023-02-19T04:43:26.766Z,100.00
2023-02-19T04:45:58.829Z,100.00
2023-02-19T04:48:36.892Z,100.00
2023-02-19T04:51:10.501Z,100.00
2023-02-19T04:53:42.581Z,100.00
2023-02-19T04:56:20.146Z,100.00
2023-02-19T04:58:46.693Z,100.00
2023-02-19T05:01:18.049Z,100.00
2023-02-19T05:03:47.670Z,100.00
2023-02-19T05:06:17.370Z,100.00
2023-02-19T05:08:54.687Z,100.00
2023-02-19T05:11:21.284Z,100.00
2023-02-19T05:13:55.785Z,100.00
2023-02-19T05:16:32.203Z,100.00
2023-02-19T05:18:59.041Z,100.00
2023-02-19T05:21:27.835Z,100.00
2023-02-19T05:23:54.419Z,100.00
2023-02-19T05:26:30.870Z,100.00
2023-02-19T05:29:01.465Z,100.00
2023-02-19T05:31:30.643Z,100.00
2023-02-19T05:33:57.487Z,100.00
2023-02-19T05:36:27.038Z,100.00
2023-02-19T05:38:55.486Z,100.00
2023-02-19T05:41:30.758Z,100.00
2023-02-19T05:44:00.698Z,100.00
2023-02-19T05:46:35.747Z,100.00
2023-02-19T05:49:02.418Z,100.00
2023-02-19T05:51:29.273Z,100.00
2023-02-19T05:54:08.737Z,100.00
2023-02-19T05:56:45.229Z,100.00
2023-02-19T05:59:24.961Z,100.00
2023-02-19T06:01:53.112Z,100.00
2023-02-19T06:04:22.511Z,100.00
2023-02-19T06:06:49.534Z,100.00
2023-02-19T06:09:18.860Z,100.00
2023-02-19T06:11:54.543Z,100.00
2023-02-19T06:14:24.354Z,100.00
2023-02-19T06:16:50.969Z,100.00
2023-02-19T06:19:17.553Z,100.00
2023-02-19T06:21:56.718Z,100.00
2023-02-19T06:24:24.415Z,100.00
2023-02-19T06:26:53.313Z,100.00
2023-02-19T06:29:26.108Z,100.00
2023-02-19T06:31:52.730Z,100.00
2023-02-19T06:34:21.642Z,100.00
2023-02-19T06:37:02.553Z,100.00
2023-02-19T06:39:29.104Z,100.00
2023-02-19T06:41:56.672Z,100.00
2023-02-19T06:44:23.517Z,100.00
2023-02-19T06:46:55.387Z,100.00
2023-02-19T06:49:31.346Z,100.00
2023-02-19T06:52:04.499Z,100.00
2023-02-19T06:54:37.251Z,100.00
2023-02-19T06:57:17.986Z,100.00
2023-02-19T06:59:55.774Z,100.00
2023-02-19T07:02:24.612Z,100.00
2023-02-19T07:04:56.206Z,100.00
2023-02-19T07:07:30.149Z,100.00
2023-02-19T07:10:10.438Z,100.00
2023-02-19T07:12:39.334Z,100.00
2023-02-19T07:15:17.638Z,100.00
2023-02-19T07:17:47.250Z,100.00
2023-02-19T07:20:15.142Z,100.00
2023-02-19T07:22:41.737Z,100.00
2023-02-19T07:25:17.547Z,100.00
2023-02-19T07:30:24.615Z,100.00
2023-02-19T07:32:56.259Z,100.00
2023-02-19T07:35:29.935Z,100.00
2023-02-19T07:38:02.126Z,99.91
2023-02-19T07:40:28.810Z,100.00
2023-02-19T07:42:57.181Z,99.45
2023-02-19T07:45:23.748Z,99.14
2023-02-19T07:47:57.394Z,97.89
2023-02-19T07:50:26.680Z,96.65
2023-02-19T07:52:56.258Z,96.03
2023-02-19T07:55:22.838Z,95.58
2023-02-19T07:57:55.028Z,94.94
2023-02-19T08:00:21.612Z,94.09
2023-02-19T08:02:48.191Z,92.24
2023-02-19T08:05:14.849Z,92.30
2023-02-19T08:07:45.528Z,89.06
2023-02-19T08:10:13.498Z,90.63
2023-02-19T08:12:40.209Z,89.96
2023-02-19T08:15:09.436Z,87.34
2023-02-19T08:17:43.604Z,86.58
2023-02-19T08:20:15.891Z,85.82
2023-02-19T08:22:42.533Z,85.84
2023-02-19T08:25:18.854Z,86.58
2023-02-19T08:27:56.537Z,86.51
2023-02-19T08:30:23.513Z,85.04
2023-02-19T08:32:52.663Z,85.36
2023-02-19T08:35:32.483Z,84.72
2023-02-19T08:38:12.857Z,84.06
2023-02-19T08:40:46.163Z,84.68
2023-02-19T08:43:16.240Z,83.40
2023-02-19T08:45:45.097Z,82.82
2023-02-19T08:48:15.968Z,85.75
2023-02-19T08:50:42.592Z,85.09
2023-02-19T08:53:15.194Z,86.60
2023-02-19T08:55:43.957Z,86.00
2023-02-19T08:58:19.210Z,87.56
2023-02-19T09:01:14.393Z,85.01
2023-02-19T09:03:41.668Z,86.67
2023-02-19T09:06:08.551Z,86.11
2023-02-19T09:08:35.686Z,84.51
2023-02-19T09:11:07.516Z,84.98
2023-02-19T09:13:34.391Z,89.16
2023-02-19T09:16:08.041Z,84.88
2023-02-19T09:18:34.913Z,88.15
2023-02-19T09:21:07.316Z,89.59
2023-02-19T09:23:36.651Z,89.37
2023-02-19T09:26:08.537Z,89.88
2023-02-19T09:28:35.847Z,89.39
2023-02-19T09:31:07.346Z,87.27
2023-02-19T09:33:33.973Z,88.29
2023-02-19T09:36:06.805Z,89.06
2023-02-19T09:38:36.352Z,86.00
2023-02-19T09:41:33.270Z,84.25
2023-02-19T09:44:04.594Z,84.36
2023-02-19T09:46:47.446Z,84.32
2023-02-19T09:49:36.191Z,83.92
2023-02-19T09:52:14.885Z,86.55
2023-02-19T09:54:42.582Z,87.32
2023-02-19T09:57:20.960Z,86.87
2023-02-19T09:59:53.486Z,87.87
2023-02-19T10:02:32.426Z,86.13
2023-02-19T10:05:12.588Z,84.86
2023-02-19T10:07:52.984Z,86.48
2023-02-19T10:10:22.343Z,86.42
2023-02-19T10:12:53.265Z,86.64
2023-02-19T10:15:32.103Z,85.93
2023-02-19T10:17:59.798Z,85.21
2023-02-19T10:20:32.973Z,85.32
2023-02-19T10:23:09.093Z,83.11
2023-02-19T10:25:46.854Z,83.90
2023-02-19T10:28:17.643Z,84.27
2023-02-19T10:30:47.867Z,83.70
2023-02-19T10:33:16.880Z,83.41
2023-02-19T10:36:05.583Z,82.22
2023-02-19T10:38:45.495Z,83.09
2023-02-19T10:41:21.689Z,83.65
2023-02-19T10:44:19.034Z,83.22
2023-02-19T10:46:58.575Z,81.02
2023-02-19T10:49:40.199Z,82.72
2023-02-19T10:52:21.098Z,81.21
2023-02-19T10:54:59.650Z,80.33
2023-02-19T11:00:15.280Z,82.29
2023-02-19T11:02:43.934Z,81.61
2023-02-19T11:05:13.319Z,82.24
2023-02-19T11:07:55.857Z,82.32
2023-02-19T11:10:26.280Z,82.32
2023-02-19T11:12:59.134Z,81.22
2023-02-19T11:15:42.660Z,81.16
2023-02-19T11:18:14.110Z,80.77
2023-02-19T11:21:00.094Z,81.74
2023-02-19T11:23:34.189Z,81.72
2023-02-19T11:26:11.653Z,81.93
2023-02-19T11:28:45.412Z,80.11
2023-02-19T11:31:26.896Z,81.60
2023-02-19T11:34:24.210Z,81.94
2023-02-19T11:37:10.930Z,81.56
2023-02-19T11:39:46.902Z,80.96
2023-02-19T11:42:41.445Z,81.58
2023-02-19T11:45:35.782Z,79.77
2023-02-19T11:48:42.675Z,81.29
2023-02-19T11:51:17.074Z,80.52
2023-02-19T11:54:18.949Z,81.00
2023-02-19T11:57:01.510Z,79.75
2023-02-19T11:59:47.462Z,80.23
2023-02-19T12:02:28.668Z,80.99
2023-02-19T12:05:18.375Z,80.62
2023-02-19T12:08:22.397Z,80.59
2023-02-19T12:11:36.625Z,80.47
2023-02-19T12:14:34.087Z,79.99
2023-02-19T12:17:04.012Z,79.41
2023-02-19T12:19:36.438Z,78.31
2023-02-19T12:22:24.776Z,78.98
2023-02-19T12:25:21.634Z,79.36
2023-02-19T12:28:11.711Z,79.39
2023-02-19T12:31:01.853Z,79.55
2023-02-19T12:33:49.632Z,79.49
2023-02-19T12:36:37.651Z,78.83
2023-02-19T12:39:28.446Z,78.92
2023-02-19T12:42:17.966Z,80.04
2023-02-19T12:45:10.493Z,79.21
2023-02-19T12:47:58.818Z,79.86
2023-02-19T12:50:27.113Z,83.26
2023-02-19T12:53:39.578Z,82.27
2023-02-19T12:56:33.440Z,80.28
2023-02-19T12:59:02.233Z,79.41
2023-02-19T13:01:35.922Z,80.43
2023-02-19T13:04:44.470Z,80.72
2023-02-19T13:07:42.058Z,80.67
2023-02-19T13:10:44.927Z,80.00
2023-02-19T13:13:31.322Z,78.96
2023-02-19T13:16:30.083Z,78.77
2023-02-19T13:19:01.174Z,79.01
2023-02-19T13:21:56.489Z,78.67
2023-02-19T13:24:35.093Z,79.17
2023-02-19T13:27:25.781Z,79.08
2023-02-19T13:30:11.422Z,78.94
2023-02-19T13:33:19.288Z,79.14
2023-02-19T13:36:01.271Z,79.58
2023-02-19T13:38:30.192Z,79.54
2023-02-19T13:40:58.783Z,79.06
2023-02-19T13:43:31.025Z,78.96
2023-02-19T13:46:04.827Z,78.50
2023-02-19T13:48:36.896Z,78.02
2023-02-19T13:51:13.088Z,79.30
2023-02-19T13:53:42.858Z,79.68
2023-02-19T13:56:38.256Z,78.58
2023-02-19T13:59:42.260Z,78.60
2023-02-19T14:02:29.704Z,78.81
2023-02-19T14:05:03.565Z,79.45
2023-02-19T14:07:57.369Z,79.62
2023-02-19T14:10:54.110Z,80.20
2023-02-19T14:13:56.121Z,79.52
2023-02-19T14:16:49.845Z,79.63
2023-02-19T14:19:45.777Z,79.65
2023-02-19T14:22:53.846Z,80.44
2023-02-19T14:25:52.630Z,80.67
2023-02-19T14:28:40.446Z,79.05
2023-02-19T14:31:22.804Z,79.39
2023-02-19T14:34:16.185Z,79.92
2023-02-19T14:37:00.735Z,80.35
2023-02-19T14:39:31.780Z,80.58
2023-02-19T14:42:01.641Z,81.34
2023-02-19T14:44:53.170Z,80.65
2023-02-19T14:47:22.933Z,80.74
2023-02-19T14:50:03.855Z,81.02
2023-02-19T14:52:37.980Z,81.06
2023-02-19T14:55:29.461Z,81.79
2023-02-19T14:57:59.912Z,81.75
2023-02-19T15:00:48.414Z,81.39
2023-02-19T15:03:28.841Z,81.86
2023-02-19T15:06:23.618Z,82.14
2023-02-19T15:08:59.358Z,82.12
2023-02-19T15:11:35.616Z,82.09
2023-02-19T15:14:32.464Z,82.44
2023-02-19T15:17:17.047Z,82.34
2023-02-19T15:19:45.248Z,82.76
2023-02-19T15:22:32.721Z,82.19
2023-02-19T15:25:07.056Z,82.76
2023-02-19T15:27:38.890Z,82.95
2023-02-19T15:30:24.341Z,83.33
2023-02-19T15:32:59.738Z,82.61
2023-02-19T15:35:40.888Z,82.49
2023-02-19T15:38:18.238Z,83.62
2023-02-19T15:40:52.930Z,83.90
2023-02-19T15:43:44.639Z,83.50
2023-02-19T15:46:23.069Z,84.08
2023-02-19T15:48:58.782Z,84.69
2023-02-19T15:54:39.267Z,84.46
2023-02-19T15:57:23.665Z,84.60
2023-02-19T16:00:41.694Z,84.77
2023-02-19T16:03:18.138Z,84.53
2023-02-19T16:05:45.425Z,84.51
2023-02-19T16:08:17.589Z,85.22
2023-02-19T16:10:58.001Z,84.45
2023-02-19T16:13:31.129Z,85.08
2023-02-19T16:16:09.940Z,85.85
2023-02-19T16:18:37.214Z,85.96
2023-02-19T16:21:18.461Z,86.30
2023-02-19T16:23:55.402Z,87.00
2023-02-19T16:26:25.279Z,86.79
2023-02-19T16:28:57.168Z,87.37
2023-02-19T16:31:24.347Z,87.36
2023-02-19T16:33:51.419Z,87.08
2023-02-19T16:36:33.335Z,87.23
2023-02-19T16:39:17.888Z,87.67
2023-02-19T16:41:49.408Z,88.92
2023-02-19T16:44:25.251Z,89.07
2023-02-19T16:47:09.770Z,89.38
2023-02-19T16:49:38.705Z,88.93
2023-02-19T16:52:11.587Z,89.25
2023-02-19T16:54:40.633Z,89.79
2023-02-19T16:57:16.393Z,90.24
2023-02-19T16:59:49.147Z,89.82
2023-02-19T17:02:31.038Z,89.26
2023-02-19T17:05:00.647Z,90.13
2023-02-19T17:07:29.881Z,90.02
2023-02-19T17:09:56.430Z,90.10
2023-02-19T17:12:23.075Z,90.55
2023-02-19T17:14:49.681Z,90.82
2023-02-19T17:17:16.201Z,90.58
2023-02-19T17:19:45.076Z,90.81
2023-02-19T17:22:14.200Z,90.76
2023-02-19T17:24:44.915Z,91.08
2023-02-19T17:27:14.730Z,91.54
2023-02-19T17:29:58.353Z,92.13
2023-02-19T17:32:27.631Z,92.17
2023-02-19T17:34:54.350Z,92.16
2023-02-19T17:37:20.978Z,92.48
2023-02-19T17:39:50.702Z,92.53
2023-02-19T17:42:19.825Z,92.88
2023-02-19T17:44:47.754Z,92.08
2023-02-19T17:47:14.377Z,92.74
2023-02-19T17:49:47.168Z,92.50
2023-02-19T17:52:25.509Z,92.04
2023-02-19T17:54:52.098Z,92.71
2023-02-19T17:57:18.875Z,93.29
2023-02-19T17:59:45.604Z,93.26
2023-02-19T18:02:12.193Z,93.73
2023-02-19T18:04:41.132Z,93.84
2023-02-19T18:07:12.576Z,93.47
2023-02-19T18:09:39.192Z,93.14
2023-02-19T18:12:07.803Z,92.60
2023-02-19T18:14:39.392Z,93.58
2023-02-19T18:17:06.834Z,94.13
2023-02-19T18:19:33.426Z,95.01
2023-02-19T18:21:59.988Z,95.11
2023-02-19T18:24:26.598Z,95.37
2023-02-19T18:26:53.209Z,95.04
2023-02-19T18:29:25.936Z,95.67
2023-02-19T18:31:59.875Z,95.79
2023-02-19T18:34:27.543Z,96.23
2023-02-19T18:37:00.002Z,93.93
2023-02-19T18:39:26.566Z,94.81
2023-02-19T18:41:55.908Z,95.46
2023-02-19T18:44:24.638Z,95.02
2023-02-19T18:46:51.679Z,95.62
2023-02-19T18:49:20.198Z,95.87
2023-02-19T18:51:50.001Z,96.12
2023-02-19T18:54:16.646Z,96.44
2023-02-19T18:56:47.296Z,96.79
2023-02-19T18:59:19.924Z,97.54
2023-02-19T19:01:54.844Z,97.53
2023-02-19T19:04:21.756Z,97.57
2023-02-19T19:06:48.369Z,98.27
2023-02-19T19:09:14.950Z,98.37
2023-02-19T19:11:48.193Z,98.28
2023-02-19T19:14:17.119Z,98.10
2023-02-19T19:16:46.494Z,97.89
2023-02-19T19:19:22.340Z,98.33
2023-02-19T19:22:01.159Z,98.29
2023-02-19T19:24:27.760Z,98.05
2023-02-19T19:26:54.340Z,98.36
2023-02-19T19:29:21.857Z,98.19
2023-02-19T19:31:59.972Z,97.81
2023-02-19T19:34:35.449Z,97.99
2023-02-19T19:37:04.743Z,97.76
2023-02-19T19:39:34.003Z,97.78
2023-02-19T19:42:00.619Z,97.86
2023-02-19T19:44:27.297Z,98.02
2023-02-19T19:46:53.876Z,98.58
2023-02-19T19:49:22.165Z,98.05
2023-02-19T19:51:49.690Z,97.83
2023-02-19T19:54:16.363Z,98.77
2023-02-19T19:56:45.459Z,98.78
2023-02-19T19:59:17.242Z,97.82
2023-02-19T20:01:53.897Z,98.22
2023-02-19T20:07:13.718Z,98.39
2023-02-19T20:09:49.228Z,99.05
2023-02-19T20:12:17.084Z,100.00
2023-02-19T20:14:49.958Z,99.95
2023-02-19T20:17:22.002Z,99.87
2023-02-19T20:19:55.319Z,99.71
2023-02-19T20:22:23.698Z,99.12
2023-02-19T20:24:54.944Z,99.80
2023-02-19T20:27:22.601Z,100.00
2023-02-19T20:29:57.242Z,100.00
2023-02-19T20:32:40.598Z,100.00
2023-02-19T20:35:27.266Z,100.00
2023-02-19T20:38:00.352Z,100.00
2023-02-19T20:40:28.068Z,100.00
2023-02-19T20:43:00.663Z,100.00
2023-02-19T20:45:28.247Z,100.00
2023-02-19T20:47:54.896Z,100.00
2023-02-19T20:50:28.950Z,100.00
2023-02-19T20:52:58.323Z,100.00
2023-02-19T20:55:32.939Z,100.00
2023-02-19T20:58:02.296Z,100.00
2023-02-19T21:00:31.336Z,100.00
2023-02-19T21:03:07.704Z,100.00
2023-02-19T21:06:09.423Z,100.00
2023-02-19T21:08:41.004Z,100.00
2023-02-19T21:11:09.677Z,100.00
2023-02-19T21:13:52.917Z,100.00
2023-02-19T21:16:34.014Z,100.00
2023-02-19T21:19:03.944Z,100.00
2023-02-19T21:21:34.414Z,100.00
2023-02-19T21:24:04.394Z,100.00
2023-02-19T21:26:38.235Z,100.00
2023-02-19T21:29:06.081Z,100.00
2023-02-19T21:32:01.739Z,100.00
2023-02-19T21:34:52.374Z,100.00
2023-02-19T21:37:29.073Z,100.00
2023-02-19T21:40:01.645Z,100.00
2023-02-19T21:42:29.090Z,100.00
2023-02-19T21:44:58.316Z,100.00
2023-02-19T21:47:24.907Z,100.00
2023-02-19T21:49:57.120Z,100.00
2023-02-19T21:52:23.708Z,100.00
2023-02-19T21:55:09.161Z,100.00
2023-02-19T21:57:56.138Z,100.00
2023-02-19T22:00:43.718Z,100.00
2023-02-19T22:03:34.853Z,100.00
2023-02-19T22:06:24.208Z,100.00
2023-02-19T22:09:05.455Z,100.00
2023-02-19T22:11:55.918Z,100.00
2023-02-19T22:14:24.832Z,100.00
2023-02-19T22:17:13.586Z,100.00
2023-02-19T22:19:45.141Z,100.00
2023-02-19T22:22:14.025Z,100.00
2023-02-19T22:24:45.685Z,100.00
2023-02-19T22:27:18.714Z,100.00
2023-02-19T22:29:47.844Z,100.00
2023-02-19T22:32:14.554Z,100.00
2023-02-19T22:34:51.861Z,100.00
2023-02-19T22:37:29.141Z,100.00
2023-02-19T22:40:00.152Z,100.00
2023-02-19T22:42:35.658Z,100.00
2023-02-19T22:45:22.497Z,100.00
2023-02-19T22:47:49.147Z,100.00
2023-02-19T22:50:23.210Z,100.00
2023-02-19T22:52:50.483Z,100.00
2023-02-19T22:55:22.489Z,100.00
2023-02-19T22:57:50.808Z,100.00
2023-02-19T23:00:21.272Z,100.00
2023-02-19T23:02:54.396Z,100.00
2023-02-19T23:05:21.851Z,100.00
2023-02-19T23:07:50.997Z,100.00
2023-02-19T23:10:31.840Z,100.00
2023-02-19T23:13:17.875Z,100.00
2023-02-19T23:15:47.483Z,100.00
2023-02-19T23:18:24.941Z,100.00
2023-02-19T23:20:51.577Z,100.00
2023-02-19T23:23:21.161Z,100.00
2023-02-19T23:25:47.718Z,100.00
2023-02-19T23:28:28.685Z,100.00
2023-02-19T23:30:55.334Z,100.00
2023-02-19T23:33:22.086Z,100.00
2023-02-19T23:35:48.644Z,100.00
2023-02-19T23:38:19.231Z,100.00
2023-02-19T23:40:56.149Z,100.00
2023-02-19T23:43:28.413Z,100.00
2023-02-19T23:45:55.102Z,100.00
2023-02-19T23:48:21.748Z,100.00
2023-02-19T23:50:48.316Z,100.00
2023-02-19T23:53:14.903Z,100.00
2023-02-19T23:55:41.511Z,100.00
2023-02-19T23:58:11.109Z,100.00
